sensor_id;sensor_type;location;lat;lon;timestamp;P1;durP1;ratioP1;P2;durP2;ratioP2
69347;SDS011;56497;45.058;41.926;2023-03-23T00:00:01;27.92;;;15.00;;
69347;SDS011;56497;45.058;41.926;2023-03-23T00:00:35;27.33;;;15.23;;
69347;SDS011;56497;45.058;41.926;2023-03-23T00:01:07;26.85;;;14.43;;
69347;SDS011;56497;45.058;41.926;2023-03-23T00:01:49;29.08;;;14.82;;
69347;SDS011;56497;45.058;41.926;2023-03-23T00:02:26;28.85;;;14.85;;
69347;SDS011;56497;45.058;41.926;2023-03-23T00:02:58;27.88;;;14.73;;
69347;SDS011;56497;45.058;41.926;2023-03-23T00:03:29;28.30;;;14.35;;
69347;SDS011;56497;45.058;41.926;2023-03-23T00:04:02;29.52;;;14.70;;
69347;SDS011;56497;45.058;41.926;2023-03-23T00:04:33;26.88;;;14.50;;
69347;SDS011;56497;45.058;41.926;2023-03-23T00:05:07;27.42;;;14.65;;
69347;SDS011;56497;45.058;41.926;2023-03-23T00:05:38;26.05;;;13.45;;
69347;SDS011;56497;45.058;41.926;2023-03-23T00:06:11;29.55;;;14.45;;
69347;SDS011;56497;45.058;41.926;2023-03-23T00:06:46;26.67;;;13.32;;
69347;SDS011;56497;45.058;41.926;2023-03-23T00:07:17;26.67;;;13.60;;
69347;SDS011;56497;45.058;41.926;2023-03-23T00:07:51;27.05;;;13.88;;
69347;SDS011;56497;45.058;41.926;2023-03-23T00:08:22;25.75;;;13.35;;
69347;SDS011;56497;45.058;41.926;2023-03-23T00:08:53;28.80;;;13.93;;
69347;SDS011;56497;45.058;41.926;2023-03-23T00:09:29;25.60;;;13.45;;
69347;SDS011;56497;45.058;41.926;2023-03-23T00:10:04;27.10;;;13.18;;
69347;SDS011;56497;45.058;41.926;2023-03-23T00:10:35;25.77;;;13.02;;
69347;SDS011;56497;45.058;41.926;2023-03-23T00:11:06;25.05;;;12.90;;
69347;SDS011;56497;45.058;41.926;2023-03-23T00:11:37;27.73;;;13.75;;
69347;SDS011;56497;45.058;41.926;2023-03-23T00:12:09;24.30;;;13.10;;
69347;SDS011;56497;45.058;41.926;2023-03-23T00:12:42;26.77;;;13.48;;
69347;SDS011;56497;45.058;41.926;2023-03-23T00:13:15;24.38;;;13.77;;
69347;SDS011;56497;45.058;41.926;2023-03-23T00:13:50;26.55;;;13.68;;
69347;SDS011;56497;45.058;41.926;2023-03-23T00:14:21;25.48;;;12.85;;
69347;SDS011;56497;45.058;41.926;2023-03-23T00:14:52;26.83;;;13.02;;
69347;SDS011;56497;45.058;41.926;2023-03-23T00:15:24;27.83;;;12.80;;
69347;SDS011;56497;45.058;41.926;2023-03-23T00:15:55;23.92;;;12.80;;
69347;SDS011;56497;45.058;41.926;2023-03-23T00:16:31;24.88;;;12.38;;
69347;SDS011;56497;45.058;41.926;2023-03-23T00:17:06;27.08;;;12.85;;
69347;SDS011;56497;45.058;41.926;2023-03-23T00:17:39;23.98;;;12.43;;
69347;SDS011;56497;45.058;41.926;2023-03-23T00:18:10;24.10;;;12.82;;
69347;SDS011;56497;45.058;41.926;2023-03-23T00:18:52;24.05;;;12.30;;
69347;SDS011;56497;45.058;41.926;2023-03-23T00:19:22;24.92;;;12.75;;
69347;SDS011;56497;45.058;41.926;2023-03-23T00:19:53;25.48;;;12.40;;
69347;SDS011;56497;45.058;41.926;2023-03-23T00:20:23;25.02;;;12.27;;
69347;SDS011;56497;45.058;41.926;2023-03-23T00:20:55;24.60;;;12.68;;
69347;SDS011;56497;45.058;41.926;2023-03-23T00:21:31;24.48;;;12.25;;
69347;SDS011;56497;45.058;41.926;2023-03-23T00:22:04;26.40;;;12.15;;
69347;SDS011;56497;45.058;41.926;2023-03-23T00:22:36;23.85;;;12.10;;
69347;SDS011;56497;45.058;41.926;2023-03-23T00:23:09;21.75;;;11.60;;
69347;SDS011;56497;45.058;41.926;2023-03-23T00:23:39;22.48;;;11.65;;
69347;SDS011;56497;45.058;41.926;2023-03-23T00:24:11;24.60;;;11.75;;
69347;SDS011;56497;45.058;41.926;2023-03-23T00:24:46;21.20;;;11.23;;
69347;SDS011;56497;45.058;41.926;2023-03-23T00:25:18;23.15;;;11.68;;
69347;SDS011;56497;45.058;41.926;2023-03-23T00:25:52;22.00;;;11.50;;
69347;SDS011;56497;45.058;41.926;2023-03-23T00:26:26;21.55;;;11.23;;
69347;SDS011;56497;45.058;41.926;2023-03-23T00:26:59;21.70;;;11.38;;
69347;SDS011;56497;45.058;41.926;2023-03-23T00:27:30;21.30;;;10.95;;
69347;SDS011;56497;45.058;41.926;2023-03-23T00:28:01;25.42;;;11.80;;
69347;SDS011;56497;45.058;41.926;2023-03-23T00:28:33;24.02;;;11.63;;
69347;SDS011;56497;45.058;41.926;2023-03-23T00:29:03;22.77;;;11.48;;
69347;SDS011;56497;45.058;41.926;2023-03-23T00:29:34;22.70;;;11.05;;
69347;SDS011;56497;45.058;41.926;2023-03-23T00:30:05;22.50;;;11.27;;
69347;SDS011;56497;45.058;41.926;2023-03-23T00:30:36;22.30;;;11.65;;
69347;SDS011;56497;45.058;41.926;2023-03-23T00:31:07;23.10;;;11.98;;
69347;SDS011;56497;45.058;41.926;2023-03-23T00:31:40;23.60;;;11.43;;
69347;SDS011;56497;45.058;41.926;2023-03-23T00:32:12;22.15;;;11.32;;
69347;SDS011;56497;45.058;41.926;2023-03-23T00:32:44;20.70;;;10.65;;
69347;SDS011;56497;45.058;41.926;2023-03-23T00:33:15;21.50;;;11.40;;
69347;SDS011;56497;45.058;41.926;2023-03-23T00:33:46;20.70;;;11.02;;
69347;SDS011;56497;45.058;41.926;2023-03-23T00:34:21;22.45;;;11.70;;
69347;SDS011;56497;45.058;41.926;2023-03-23T00:34:55;25.08;;;11.75;;
69347;SDS011;56497;45.058;41.926;2023-03-23T00:35:28;19.67;;;10.82;;
69347;SDS011;56497;45.058;41.926;2023-03-23T00:36:00;25.60;;;11.48;;
69347;SDS011;56497;45.058;41.926;2023-03-23T00:36:32;21.50;;;11.32;;
69347;SDS011;56497;45.058;41.926;2023-03-23T00:37:05;23.48;;;11.52;;
69347;SDS011;56497;45.058;41.926;2023-03-23T00:37:36;22.23;;;11.10;;
69347;SDS011;56497;45.058;41.926;2023-03-23T00:38:07;23.55;;;11.80;;
69347;SDS011;56497;45.058;41.926;2023-03-23T00:38:39;25.27;;;11.32;;
69347;SDS011;56497;45.058;41.926;2023-03-23T00:39:11;21.88;;;11.15;;
69347;SDS011;56497;45.058;41.926;2023-03-23T00:39:42;22.33;;;10.35;;
69347;SDS011;56497;45.058;41.926;2023-03-23T00:40:15;23.00;;;11.10;;
69347;SDS011;56497;45.058;41.926;2023-03-23T00:40:47;24.38;;;11.20;;
69347;SDS011;56497;45.058;41.926;2023-03-23T00:41:18;23.60;;;10.93;;
69347;SDS011;56497;45.058;41.926;2023-03-23T00:41:48;23.05;;;11.27;;
69347;SDS011;56497;45.058;41.926;2023-03-23T00:42:19;21.48;;;11.25;;
69347;SDS011;56497;45.058;41.926;2023-03-23T00:42:51;22.27;;;10.85;;
69347;SDS011;56497;45.058;41.926;2023-03-23T00:43:23;24.90;;;11.57;;
69347;SDS011;56497;45.058;41.926;2023-03-23T00:43:58;21.63;;;11.32;;
69347;SDS011;56497;45.058;41.926;2023-03-23T00:44:32;21.85;;;11.55;;
69347;SDS011;56497;45.058;41.926;2023-03-23T00:45:05;20.67;;;11.07;;
69347;SDS011;56497;45.058;41.926;2023-03-23T00:45:40;23.55;;;10.65;;
69347;SDS011;56497;45.058;41.926;2023-03-23T00:46:11;25.13;;;11.27;;
69347;SDS011;56497;45.058;41.926;2023-03-23T00:46:43;23.30;;;11.90;;
69347;SDS011;56497;45.058;41.926;2023-03-23T00:47:15;27.55;;;11.82;;
69347;SDS011;56497;45.058;41.926;2023-03-23T00:47:47;20.48;;;11.38;;
69347;SDS011;56497;45.058;41.926;2023-03-23T00:48:24;23.23;;;11.43;;
69347;SDS011;56497;45.058;41.926;2023-03-23T00:48:55;23.02;;;11.88;;
69347;SDS011;56497;45.058;41.926;2023-03-23T00:49:27;22.25;;;11.30;;
69347;SDS011;56497;45.058;41.926;2023-03-23T00:49:57;24.60;;;11.90;;
69347;SDS011;56497;45.058;41.926;2023-03-23T00:50:28;26.27;;;11.48;;
69347;SDS011;56497;45.058;41.926;2023-03-23T00:50:59;23.00;;;11.40;;
69347;SDS011;56497;45.058;41.926;2023-03-23T00:51:31;22.83;;;11.10;;
69347;SDS011;56497;45.058;41.926;2023-03-23T00:52:03;23.40;;;11.70;;
69347;SDS011;56497;45.058;41.926;2023-03-23T00:52:35;23.17;;;11.50;;
69347;SDS011;56497;45.058;41.926;2023-03-23T00:53:06;24.83;;;11.55;;
69347;SDS011;56497;45.058;41.926;2023-03-23T00:53:38;22.83;;;11.63;;
69347;SDS011;56497;45.058;41.926;2023-03-23T00:54:09;21.13;;;11.25;;
69347;SDS011;56497;45.058;41.926;2023-03-23T00:54:40;21.30;;;11.27;;
69347;SDS011;56497;45.058;41.926;2023-03-23T00:55:11;22.95;;;11.10;;
69347;SDS011;56497;45.058;41.926;2023-03-23T00:55:42;24.80;;;11.48;;
69347;SDS011;56497;45.058;41.926;2023-03-23T00:56:13;23.25;;;11.40;;
69347;SDS011;56497;45.058;41.926;2023-03-23T00:56:44;24.73;;;11.73;;
69347;SDS011;56497;45.058;41.926;2023-03-23T00:57:14;23.92;;;11.45;;
69347;SDS011;56497;45.058;41.926;2023-03-23T00:57:46;22.52;;;11.15;;
69347;SDS011;56497;45.058;41.926;2023-03-23T00:58:20;24.40;;;11.70;;
69347;SDS011;56497;45.058;41.926;2023-03-23T00:58:50;23.17;;;11.95;;
69347;SDS011;56497;45.058;41.926;2023-03-23T00:59:21;23.30;;;12.05;;
69347;SDS011;56497;45.058;41.926;2023-03-23T00:59:52;24.23;;;12.05;;
69347;SDS011;56497;45.058;41.926;2023-03-23T01:00:23;24.35;;;11.10;;
69347;SDS011;56497;45.058;41.926;2023-03-23T01:00:54;24.85;;;11.80;;
69347;SDS011;56497;45.058;41.926;2023-03-23T01:01:24;25.38;;;11.90;;
69347;SDS011;56497;45.058;41.926;2023-03-23T01:01:55;23.05;;;12.10;;
69347;SDS011;56497;45.058;41.926;2023-03-23T01:02:26;23.42;;;11.93;;
69347;SDS011;56497;45.058;41.926;2023-03-23T01:02:56;23.90;;;12.05;;
69347;SDS011;56497;45.058;41.926;2023-03-23T01:03:27;21.38;;;11.70;;
69347;SDS011;56497;45.058;41.926;2023-03-23T01:03:58;25.73;;;12.00;;
69347;SDS011;56497;45.058;41.926;2023-03-23T01:04:34;25.88;;;12.02;;
69347;SDS011;56497;45.058;41.926;2023-03-23T01:05:07;22.42;;;11.43;;
69347;SDS011;56497;45.058;41.926;2023-03-23T01:05:38;24.08;;;12.05;;
69347;SDS011;56497;45.058;41.926;2023-03-23T01:06:10;23.63;;;12.00;;
69347;SDS011;56497;45.058;41.926;2023-03-23T01:06:44;22.67;;;12.35;;
69347;SDS011;56497;45.058;41.926;2023-03-23T01:07:15;26.05;;;12.32;;
69347;SDS011;56497;45.058;41.926;2023-03-23T01:07:48;24.85;;;12.10;;
69347;SDS011;56497;45.058;41.926;2023-03-23T01:08:18;23.30;;;12.23;;
69347;SDS011;56497;45.058;41.926;2023-03-23T01:08:49;29.15;;;12.95;;
69347;SDS011;56497;45.058;41.926;2023-03-23T01:09:20;25.77;;;12.43;;
69347;SDS011;56497;45.058;41.926;2023-03-23T01:09:53;23.90;;;11.68;;
69347;SDS011;56497;45.058;41.926;2023-03-23T01:10:24;22.13;;;11.68;;
69347;SDS011;56497;45.058;41.926;2023-03-23T01:11:01;25.13;;;12.48;;
69347;SDS011;56497;45.058;41.926;2023-03-23T01:11:33;23.35;;;11.30;;
69347;SDS011;56497;45.058;41.926;2023-03-23T01:12:05;26.15;;;12.10;;
69347;SDS011;56497;45.058;41.926;2023-03-23T01:12:35;25.83;;;11.68;;
69347;SDS011;56497;45.058;41.926;2023-03-23T01:13:07;24.13;;;12.02;;
69347;SDS011;56497;45.058;41.926;2023-03-23T01:13:37;24.63;;;12.73;;
69347;SDS011;56497;45.058;41.926;2023-03-23T01:14:08;24.25;;;11.68;;
69347;SDS011;56497;45.058;41.926;2023-03-23T01:14:40;24.52;;;11.55;;
69347;SDS011;56497;45.058;41.926;2023-03-23T01:15:15;23.08;;;12.25;;
69347;SDS011;56497;45.058;41.926;2023-03-23T01:15:47;22.52;;;12.15;;
69347;SDS011;56497;45.058;41.926;2023-03-23T01:16:18;24.95;;;11.80;;
69347;SDS011;56497;45.058;41.926;2023-03-23T01:16:48;22.88;;;11.68;;
69347;SDS011;56497;45.058;41.926;2023-03-23T01:17:19;26.75;;;12.02;;
69347;SDS011;56497;45.058;41.926;2023-03-23T01:17:51;24.58;;;12.05;;
69347;SDS011;56497;45.058;41.926;2023-03-23T01:18:21;25.23;;;12.43;;
69347;SDS011;56497;45.058;41.926;2023-03-23T01:18:52;23.13;;;11.90;;
69347;SDS011;56497;45.058;41.926;2023-03-23T01:19:22;26.38;;;11.98;;
69347;SDS011;56497;45.058;41.926;2023-03-23T01:19:53;25.25;;;12.15;;
69347;SDS011;56497;45.058;41.926;2023-03-23T01:20:24;26.52;;;12.18;;
69347;SDS011;56497;45.058;41.926;2023-03-23T01:20:56;24.30;;;12.45;;
69347;SDS011;56497;45.058;41.926;2023-03-23T01:21:27;25.30;;;11.95;;
69347;SDS011;56497;45.058;41.926;2023-03-23T01:21:57;24.73;;;12.30;;
69347;SDS011;56497;45.058;41.926;2023-03-23T01:22:28;23.10;;;11.90;;
69347;SDS011;56497;45.058;41.926;2023-03-23T01:22:59;24.00;;;12.50;;
69347;SDS011;56497;45.058;41.926;2023-03-23T01:23:33;25.13;;;12.32;;
69347;SDS011;56497;45.058;41.926;2023-03-23T01:24:04;24.73;;;12.77;;
69347;SDS011;56497;45.058;41.926;2023-03-23T01:24:36;24.38;;;12.00;;
69347;SDS011;56497;45.058;41.926;2023-03-23T01:25:07;22.60;;;12.40;;
69347;SDS011;56497;45.058;41.926;2023-03-23T01:25:39;27.85;;;12.75;;
69347;SDS011;56497;45.058;41.926;2023-03-23T01:26:11;23.88;;;12.48;;
69347;SDS011;56497;45.058;41.926;2023-03-23T01:26:43;23.60;;;12.00;;
69347;SDS011;56497;45.058;41.926;2023-03-23T01:27:14;26.65;;;12.80;;
69347;SDS011;56497;45.058;41.926;2023-03-23T01:27:45;25.92;;;12.20;;
69347;SDS011;56497;45.058;41.926;2023-03-23T01:28:16;27.67;;;12.38;;
69347;SDS011;56497;45.058;41.926;2023-03-23T01:28:46;22.13;;;12.10;;
69347;SDS011;56497;45.058;41.926;2023-03-23T01:29:17;24.35;;;12.38;;
69347;SDS011;56497;45.058;41.926;2023-03-23T01:29:48;27.10;;;12.68;;
69347;SDS011;56497;45.058;41.926;2023-03-23T01:30:18;26.80;;;12.10;;
69347;SDS011;56497;45.058;41.926;2023-03-23T01:30:49;25.55;;;12.18;;
69347;SDS011;56497;45.058;41.926;2023-03-23T01:31:21;24.80;;;11.98;;
69347;SDS011;56497;45.058;41.926;2023-03-23T01:31:53;24.55;;;12.45;;
69347;SDS011;56497;45.058;41.926;2023-03-23T01:32:24;24.20;;;12.00;;
69347;SDS011;56497;45.058;41.926;2023-03-23T01:32:54;24.25;;;11.95;;
69347;SDS011;56497;45.058;41.926;2023-03-23T01:33:25;23.23;;;12.02;;
69347;SDS011;56497;45.058;41.926;2023-03-23T01:33:56;22.67;;;11.75;;
69347;SDS011;56497;45.058;41.926;2023-03-23T01:34:27;24.33;;;12.65;;
69347;SDS011;56497;45.058;41.926;2023-03-23T01:34:57;26.90;;;11.60;;
69347;SDS011;56497;45.058;41.926;2023-03-23T01:35:28;24.77;;;12.00;;
69347;SDS011;56497;45.058;41.926;2023-03-23T01:36:03;24.77;;;11.98;;
69347;SDS011;56497;45.058;41.926;2023-03-23T01:36:35;25.25;;;11.82;;
69347;SDS011;56497;45.058;41.926;2023-03-23T01:37:06;26.73;;;12.02;;
69347;SDS011;56497;45.058;41.926;2023-03-23T01:37:37;24.58;;;11.65;;
69347;SDS011;56497;45.058;41.926;2023-03-23T01:38:07;25.13;;;12.48;;
69347;SDS011;56497;45.058;41.926;2023-03-23T01:38:38;25.88;;;12.52;;
69347;SDS011;56497;45.058;41.926;2023-03-23T01:39:09;24.15;;;12.35;;
69347;SDS011;56497;45.058;41.926;2023-03-23T01:39:39;27.45;;;12.52;;
69347;SDS011;56497;45.058;41.926;2023-03-23T01:40:11;28.42;;;12.80;;
69347;SDS011;56497;45.058;41.926;2023-03-23T01:40:42;26.48;;;11.77;;
69347;SDS011;56497;45.058;41.926;2023-03-23T01:41:14;23.10;;;12.05;;
69347;SDS011;56497;45.058;41.926;2023-03-23T01:41:45;26.67;;;12.35;;
69347;SDS011;56497;45.058;41.926;2023-03-23T01:42:16;25.95;;;12.43;;
69347;SDS011;56497;45.058;41.926;2023-03-23T01:42:47;26.38;;;12.80;;
69347;SDS011;56497;45.058;41.926;2023-03-23T01:43:18;24.80;;;11.77;;
69347;SDS011;56497;45.058;41.926;2023-03-23T01:45:50;23.23;;;11.40;;
69347;SDS011;56497;45.058;41.926;2023-03-23T01:46:21;25.48;;;12.55;;
69347;SDS011;56497;45.058;41.926;2023-03-23T01:46:52;24.30;;;12.05;;
69347;SDS011;56497;45.058;41.926;2023-03-23T01:47:24;25.35;;;12.77;;
69347;SDS011;56497;45.058;41.926;2023-03-23T01:48:42;27.50;;;11.88;;
69347;SDS011;56497;45.058;41.926;2023-03-23T01:49:14;23.63;;;12.13;;
69347;SDS011;56497;45.058;41.926;2023-03-23T01:49:48;24.23;;;11.75;;
69347;SDS011;56497;45.058;41.926;2023-03-23T01:50:21;23.23;;;12.00;;
69347;SDS011;56497;45.058;41.926;2023-03-23T01:50:56;22.63;;;12.00;;
69347;SDS011;56497;45.058;41.926;2023-03-23T01:52:02;26.23;;;11.77;;
69347;SDS011;56497;45.058;41.926;2023-03-23T01:52:55;25.88;;;11.77;;
69347;SDS011;56497;45.058;41.926;2023-03-23T01:53:30;29.38;;;12.65;;
69347;SDS011;56497;45.058;41.926;2023-03-23T01:54:06;24.50;;;12.93;;
69347;SDS011;56497;45.058;41.926;2023-03-23T01:54:38;23.70;;;12.20;;
69347;SDS011;56497;45.058;41.926;2023-03-23T01:55:10;26.45;;;12.32;;
69347;SDS011;56497;45.058;41.926;2023-03-23T01:55:41;25.48;;;11.95;;
69347;SDS011;56497;45.058;41.926;2023-03-23T01:56:19;25.85;;;12.80;;
69347;SDS011;56497;45.058;41.926;2023-03-23T01:57:05;25.55;;;12.48;;
69347;SDS011;56497;45.058;41.926;2023-03-23T01:57:40;26.38;;;11.48;;
69347;SDS011;56497;45.058;41.926;2023-03-23T01:58:11;25.98;;;12.45;;
69347;SDS011;56497;45.058;41.926;2023-03-23T01:58:42;23.13;;;12.10;;
69347;SDS011;56497;45.058;41.926;2023-03-23T01:59:13;26.63;;;13.00;;
69347;SDS011;56497;45.058;41.926;2023-03-23T01:59:47;23.92;;;12.10;;
69347;SDS011;56497;45.058;41.926;2023-03-23T02:00:21;26.67;;;12.57;;
69347;SDS011;56497;45.058;41.926;2023-03-23T02:00:54;26.23;;;12.38;;
69347;SDS011;56497;45.058;41.926;2023-03-23T02:01:27;24.77;;;12.13;;
69347;SDS011;56497;45.058;41.926;2023-03-23T02:01:58;28.17;;;12.82;;
69347;SDS011;56497;45.058;41.926;2023-03-23T02:02:30;26.38;;;12.60;;
69347;SDS011;56497;45.058;41.926;2023-03-23T02:03:02;26.35;;;12.52;;
69347;SDS011;56497;45.058;41.926;2023-03-23T02:03:34;26.50;;;12.68;;
69347;SDS011;56497;45.058;41.926;2023-03-23T02:04:06;24.88;;;12.02;;
69347;SDS011;56497;45.058;41.926;2023-03-23T02:04:37;26.23;;;12.07;;
69347;SDS011;56497;45.058;41.926;2023-03-23T02:05:14;27.05;;;13.02;;
69347;SDS011;56497;45.058;41.926;2023-03-23T02:05:51;25.10;;;12.13;;
69347;SDS011;56497;45.058;41.926;2023-03-23T02:06:22;25.73;;;12.45;;
69347;SDS011;56497;45.058;41.926;2023-03-23T02:06:53;23.52;;;12.57;;
69347;SDS011;56497;45.058;41.926;2023-03-23T02:07:26;24.50;;;12.70;;
69347;SDS011;56497;45.058;41.926;2023-03-23T02:07:58;25.65;;;12.82;;
69347;SDS011;56497;45.058;41.926;2023-03-23T02:08:32;27.60;;;12.85;;
69347;SDS011;56497;45.058;41.926;2023-03-23T02:09:04;25.40;;;12.95;;
69347;SDS011;56497;45.058;41.926;2023-03-23T02:09:38;24.38;;;12.25;;
69347;SDS011;56497;45.058;41.926;2023-03-23T02:10:08;25.98;;;12.43;;
69347;SDS011;56497;45.058;41.926;2023-03-23T02:10:39;25.45;;;12.90;;
69347;SDS011;56497;45.058;41.926;2023-03-23T02:11:12;25.48;;;12.50;;
69347;SDS011;56497;45.058;41.926;2023-03-23T02:11:45;26.10;;;12.50;;
69347;SDS011;56497;45.058;41.926;2023-03-23T02:12:17;23.98;;;12.13;;
69347;SDS011;56497;45.058;41.926;2023-03-23T02:12:48;24.85;;;12.02;;
69347;SDS011;56497;45.058;41.926;2023-03-23T02:13:18;25.70;;;12.70;;
69347;SDS011;56497;45.058;41.926;2023-03-23T02:13:49;25.17;;;12.48;;
69347;SDS011;56497;45.058;41.926;2023-03-23T02:14:21;26.38;;;12.63;;
69347;SDS011;56497;45.058;41.926;2023-03-23T02:14:53;24.75;;;12.85;;
69347;SDS011;56497;45.058;41.926;2023-03-23T02:15:25;23.38;;;12.38;;
69347;SDS011;56497;45.058;41.926;2023-03-23T02:17:16;24.73;;;11.73;;
69347;SDS011;56497;45.058;41.926;2023-03-23T02:18:00;28.05;;;12.40;;
69347;SDS011;56497;45.058;41.926;2023-03-23T02:20:29;24.48;;;11.88;;
69347;SDS011;56497;45.058;41.926;2023-03-23T02:22:43;25.20;;;11.95;;
69347;SDS011;56497;45.058;41.926;2023-03-23T02:24:57;23.38;;;11.07;;
69347;SDS011;56497;45.058;41.926;2023-03-23T02:26:34;24.45;;;11.68;;
69347;SDS011;56497;45.058;41.926;2023-03-23T02:29:05;26.83;;;11.82;;
69347;SDS011;56497;45.058;41.926;2023-03-23T02:34:53;24.65;;;10.95;;
69347;SDS011;56497;45.058;41.926;2023-03-23T02:35:37;25.48;;;11.27;;
69347;SDS011;56497;45.058;41.926;2023-03-23T02:37:00;23.77;;;11.35;;
69347;SDS011;56497;45.058;41.926;2023-03-23T02:37:39;26.15;;;11.65;;
69347;SDS011;56497;45.058;41.926;2023-03-23T02:38:15;24.55;;;11.95;;
69347;SDS011;56497;45.058;41.926;2023-03-23T02:39:45;24.50;;;11.48;;
69347;SDS011;56497;45.058;41.926;2023-03-23T02:40:30;26.38;;;11.80;;
69347;SDS011;56497;45.058;41.926;2023-03-23T02:41:06;25.27;;;12.15;;
69347;SDS011;56497;45.058;41.926;2023-03-23T02:41:39;23.73;;;12.15;;
69347;SDS011;56497;45.058;41.926;2023-03-23T02:42:16;27.33;;;12.27;;
69347;SDS011;56497;45.058;41.926;2023-03-23T02:42:52;28.40;;;12.43;;
69347;SDS011;56497;45.058;41.926;2023-03-23T02:43:25;27.40;;;12.30;;
69347;SDS011;56497;45.058;41.926;2023-03-23T02:43:58;24.58;;;12.20;;
69347;SDS011;56497;45.058;41.926;2023-03-23T02:44:32;23.00;;;12.05;;
69347;SDS011;56497;45.058;41.926;2023-03-23T02:45:07;24.35;;;12.30;;
69347;SDS011;56497;45.058;41.926;2023-03-23T02:45:40;25.60;;;12.05;;
69347;SDS011;56497;45.058;41.926;2023-03-23T02:46:14;24.23;;;12.18;;
69347;SDS011;56497;45.058;41.926;2023-03-23T02:46:46;22.38;;;11.88;;
69347;SDS011;56497;45.058;41.926;2023-03-23T02:47:19;24.33;;;11.85;;
69347;SDS011;56497;45.058;41.926;2023-03-23T02:47:53;22.45;;;11.43;;
69347;SDS011;56497;45.058;41.926;2023-03-23T02:48:27;26.02;;;12.55;;
69347;SDS011;56497;45.058;41.926;2023-03-23T02:49:00;24.20;;;12.10;;
69347;SDS011;56497;45.058;41.926;2023-03-23T02:49:34;26.73;;;12.18;;
69347;SDS011;56497;45.058;41.926;2023-03-23T02:50:09;24.02;;;12.20;;
69347;SDS011;56497;45.058;41.926;2023-03-23T02:50:44;24.50;;;12.13;;
69347;SDS011;56497;45.058;41.926;2023-03-23T02:51:18;26.95;;;12.23;;
69347;SDS011;56497;45.058;41.926;2023-03-23T02:51:50;23.77;;;12.25;;
69347;SDS011;56497;45.058;41.926;2023-03-23T02:52:24;23.60;;;12.23;;
69347;SDS011;56497;45.058;41.926;2023-03-23T02:52:58;27.38;;;12.45;;
69347;SDS011;56497;45.058;41.926;2023-03-23T02:53:31;23.63;;;11.73;;
69347;SDS011;56497;45.058;41.926;2023-03-23T02:54:04;24.55;;;12.60;;
69347;SDS011;56497;45.058;41.926;2023-03-23T02:54:36;23.08;;;11.90;;
69347;SDS011;56497;45.058;41.926;2023-03-23T02:55:08;27.55;;;12.43;;
69347;SDS011;56497;45.058;41.926;2023-03-23T02:55:41;27.02;;;12.20;;
69347;SDS011;56497;45.058;41.926;2023-03-23T02:56:14;24.30;;;12.18;;
69347;SDS011;56497;45.058;41.926;2023-03-23T02:56:45;22.83;;;12.27;;
69347;SDS011;56497;45.058;41.926;2023-03-23T02:57:16;28.38;;;12.10;;
69347;SDS011;56497;45.058;41.926;2023-03-23T02:57:47;25.77;;;12.10;;
69347;SDS011;56497;45.058;41.926;2023-03-23T02:58:18;25.75;;;12.68;;
69347;SDS011;56497;45.058;41.926;2023-03-23T02:58:49;23.42;;;12.02;;
69347;SDS011;56497;45.058;41.926;2023-03-23T02:59:20;25.23;;;12.32;;
69347;SDS011;56497;45.058;41.926;2023-03-23T02:59:51;25.35;;;12.50;;
69347;SDS011;56497;45.058;41.926;2023-03-23T03:00:22;25.02;;;12.85;;
69347;SDS011;56497;45.058;41.926;2023-03-23T03:00:53;26.13;;;12.18;;
69347;SDS011;56497;45.058;41.926;2023-03-23T03:02:33;27.48;;;12.13;;
69347;SDS011;56497;45.058;41.926;2023-03-23T03:03:10;23.13;;;12.32;;
69347;SDS011;56497;45.058;41.926;2023-03-23T03:03:45;25.08;;;12.80;;
69347;SDS011;56497;45.058;41.926;2023-03-23T03:04:17;25.35;;;12.35;;
69347;SDS011;56497;45.058;41.926;2023-03-23T03:04:55;26.83;;;12.23;;
69347;SDS011;56497;45.058;41.926;2023-03-23T03:05:38;24.23;;;11.98;;
69347;SDS011;56497;45.058;41.926;2023-03-23T03:06:20;23.48;;;11.38;;
69347;SDS011;56497;45.058;41.926;2023-03-23T03:09:38;22.17;;;11.45;;
69347;SDS011;56497;45.058;41.926;2023-03-23T03:10:00;23.65;;;11.35;;
69347;SDS011;56497;45.058;41.926;2023-03-23T03:10:42;26.05;;;12.20;;
69347;SDS011;56497;45.058;41.926;2023-03-23T03:11:27;25.30;;;11.52;;
69347;SDS011;56497;45.058;41.926;2023-03-23T03:11:59;27.52;;;12.07;;
69347;SDS011;56497;45.058;41.926;2023-03-23T03:12:43;25.05;;;12.02;;
69347;SDS011;56497;45.058;41.926;2023-03-23T03:14:22;26.80;;;11.70;;
69347;SDS011;56497;45.058;41.926;2023-03-23T03:15:40;25.80;;;11.75;;
69347;SDS011;56497;45.058;41.926;2023-03-23T03:17:17;23.13;;;10.95;;
69347;SDS011;56497;45.058;41.926;2023-03-23T03:17:55;24.15;;;11.13;;
69347;SDS011;56497;45.058;41.926;2023-03-23T03:18:39;25.65;;;11.80;;
69347;SDS011;56497;45.058;41.926;2023-03-23T03:20:00;24.95;;;11.82;;
69347;SDS011;56497;45.058;41.926;2023-03-23T03:20:46;24.35;;;11.93;;
69347;SDS011;56497;45.058;41.926;2023-03-23T03:21:20;24.65;;;11.02;;
69347;SDS011;56497;45.058;41.926;2023-03-23T03:21:56;22.67;;;11.40;;
69347;SDS011;56497;45.058;41.926;2023-03-23T03:22:28;25.10;;;11.77;;
69347;SDS011;56497;45.058;41.926;2023-03-23T03:23:00;26.33;;;11.70;;
69347;SDS011;56497;45.058;41.926;2023-03-23T03:23:32;25.25;;;11.23;;
69347;SDS011;56497;45.058;41.926;2023-03-23T03:24:05;21.73;;;11.38;;
69347;SDS011;56497;45.058;41.926;2023-03-23T03:24:41;21.52;;;11.07;;
69347;SDS011;56497;45.058;41.926;2023-03-23T03:25:14;27.52;;;12.23;;
69347;SDS011;56497;45.058;41.926;2023-03-23T03:25:48;25.35;;;12.00;;
69347;SDS011;56497;45.058;41.926;2023-03-23T03:26:20;23.92;;;11.93;;
69347;SDS011;56497;45.058;41.926;2023-03-23T03:26:57;24.90;;;11.60;;
69347;SDS011;56497;45.058;41.926;2023-03-23T03:27:30;22.77;;;11.57;;
69347;SDS011;56497;45.058;41.926;2023-03-23T03:28:02;24.50;;;11.15;;
69347;SDS011;56497;45.058;41.926;2023-03-23T03:28:33;26.77;;;11.80;;
69347;SDS011;56497;45.058;41.926;2023-03-23T03:29:04;23.25;;;11.32;;
69347;SDS011;56497;45.058;41.926;2023-03-23T03:29:37;26.05;;;11.52;;
69347;SDS011;56497;45.058;41.926;2023-03-23T03:30:11;23.90;;;11.23;;
69347;SDS011;56497;45.058;41.926;2023-03-23T03:30:51;22.80;;;11.77;;
69347;SDS011;56497;45.058;41.926;2023-03-23T03:31:35;25.88;;;11.32;;
69347;SDS011;56497;45.058;41.926;2023-03-23T03:32:11;25.05;;;11.30;;
69347;SDS011;56497;45.058;41.926;2023-03-23T03:32:44;23.15;;;10.68;;
69347;SDS011;56497;45.058;41.926;2023-03-23T03:33:18;21.60;;;10.88;;
69347;SDS011;56497;45.058;41.926;2023-03-23T03:33:50;23.10;;;11.07;;
69347;SDS011;56497;45.058;41.926;2023-03-23T03:34:21;21.05;;;10.88;;
69347;SDS011;56497;45.058;41.926;2023-03-23T03:34:53;23.38;;;10.60;;
69347;SDS011;56497;45.058;41.926;2023-03-23T03:35:24;22.10;;;10.60;;
69347;SDS011;56497;45.058;41.926;2023-03-23T03:35:55;23.33;;;11.10;;
69347;SDS011;56497;45.058;41.926;2023-03-23T03:36:28;23.17;;;10.77;;